sensor_id;sensor_type;location;lat;lon;timestamp;temperature;humidity
15922;DHT22;8060;50.948;3.146;2022-09-28T06:33:57;9.30;99.90
15922;DHT22;8060;50.948;3.146;2022-09-28T06:36:27;9.30;99.90
15922;DHT22;8060;50.948;3.146;2022-09-28T06:38:57;9.40;99.90
15922;DHT22;8060;50.948;3.146;2022-09-28T06:41:25;9.40;99.90
15922;DHT22;8060;50.948;3.146;2022-09-28T06:43:53;9.50;99.90
15922;DHT22;8060;50.948;3.146;2022-09-28T06:46:25;9.60;99.90
15922;DHT22;8060;50.948;3.146;2022-09-28T06:48:57;9.70;99.90
15922;DHT22;8060;50.948;3.146;2022-09-28T06:51:26;9.80;99.90
15922;DHT22;8060;50.948;3.146;2022-09-28T06:53:54;9.80;99.90
15922;DHT22;8060;50.948;3.146;2022-09-28T06:56:22;10.00;99.90
15922;DHT22;8060;50.948;3.146;2022-09-28T06:58:59;10.00;99.90
15922;DHT22;8060;50.948;3.146;2022-09-28T07:01:27;10.10;99.90
15922;DHT22;8060;50.948;3.146;2022-09-28T07:04:00;10.20;99.90
15922;DHT22;8060;50.948;3.146;2022-09-28T07:06:29;10.30;99.90
15922;DHT22;8060;50.948;3.146;2022-09-28T07:08:57;10.40;99.90
15922;DHT22;8060;50.948;3.146;2022-09-28T07:11:52;10.50;99.90
15922;DHT22;8060;50.948;3.146;2022-09-28T07:14:21;10.50;99.90
15922;DHT22;8060;50.948;3.146;2022-09-28T07:17:10;10.60;99.90
15922;DHT22;8060;50.948;3.146;2022-09-28T07:19:42;10.70;99.90
15922;DHT22;8060;50.948;3.146;2022-09-28T07:22:10;10.80;99.90
15922;DHT22;8060;50.948;3.146;2022-09-28T07:24:44;10.80;99.90
15922;DHT22;8060;50.948;3.146;2022-09-28T07:27:15;10.90;99.90
15922;DHT22;8060;50.948;3.146;2022-09-28T07:29:43;11.00;99.90
15922;DHT22;8060;50.948;3.146;2022-09-28T07:32:11;11.00;99.90
15922;DHT22;8060;50.948;3.146;2022-09-28T07:34:43;11.10;99.90
15922;DHT22;8060;50.948;3.146;2022-09-28T07:37:12;11.00;99.90
15922;DHT22;8060;50.948;3.146;2022-09-28T07:39:40;11.00;99.90
15922;DHT22;8060;50.948;3.146;2022-09-28T07:42:26;10.90;99.90
15922;DHT22;8060;50.948;3.146;2022-09-28T07:44:56;10.90;99.90
15922;DHT22;8060;50.948;3.146;2022-09-28T07:47:24;11.00;99.90
15922;DHT22;8060;50.948;3.146;2022-09-28T07:50:02;11.00;99.90
15922;DHT22;8060;50.948;3.146;2022-09-28T07:52:33;11.20;99.90
15922;DHT22;8060;50.948;3.146;2022-09-28T07:55:02;11.30;99.90
15922;DHT22;8060;50.948;3.146;2022-09-28T07:57:33;11.50;99.90
15922;DHT22;8060;50.948;3.146;2022-09-28T08:00:03;11.60;99.90
15922;DHT22;8060;50.948;3.146;2022-09-28T08:02:34;11.70;99.90
15922;DHT22;8060;50.948;3.146;2022-09-28T08:05:04;11.80;99.90
15922;DHT22;8060;50.948;3.146;2022-09-28T08:07:35;11.90;99.90
15922;DHT22;8060;50.948;3.146;2022-09-28T08:10:07;12.00;99.90
15922;DHT22;8060;50.948;3.146;2022-09-28T08:12:35;12.20;99.90
15922;DHT22;8060;50.948;3.146;2022-09-28T08:15:07;12.20;99.90
15922;DHT22;8060;50.948;3.146;2022-09-28T08:17:36;12.30;99.90
15922;DHT22;8060;50.948;3.146;2022-09-28T08:20:07;12.50;99.90
15922;DHT22;8060;50.948;3.146;2022-09-28T08:22:53;12.60;99.90
15922;DHT22;8060;50.948;3.146;2022-09-28T08:25:22;12.70;99.90
15922;DHT22;8060;50.948;3.146;2022-09-28T08:27:51;12.80;99.90
15922;DHT22;8060;50.948;3.146;2022-09-28T08:30:19;13.00;99.90
15922;DHT22;8060;50.948;3.146;2022-09-28T08:32:47;13.10;99.90
15922;DHT22;8060;50.948;3.146;2022-09-28T08:35:16;13.30;99.90
15922;DHT22;8060;50.948;3.146;2022-09-28T08:37:48;13.50;99.90
15922;DHT22;8060;50.948;3.146;2022-09-28T08:40:22;13.70;99.90
15922;DHT22;8060;50.948;3.146;2022-09-28T08:42:53;13.80;99.90
15922;DHT22;8060;50.948;3.146;2022-09-28T08:45:26;14.00;99.90
15922;DHT22;8060;50.948;3.146;2022-09-28T08:47:59;14.20;99.90
15922;DHT22;8060;50.948;3.146;2022-09-28T08:50:51;14.30;99.90
15922;DHT22;8060;50.948;3.146;2022-09-28T08:53:31;14.40;99.90
15922;DHT22;8060;50.948;3.146;2022-09-28T08:56:01;14.60;99.90
15922;DHT22;8060;50.948;3.146;2022-09-28T08:58:33;14.80;99.90
15922;DHT22;8060;50.948;3.146;2022-09-28T09:01:04;14.90;99.90
15922;DHT22;8060;50.948;3.146;2022-09-28T09:03:36;15.00;99.90
15922;DHT22;8060;50.948;3.146;2022-09-28T09:06:17;15.30;99.90
15922;DHT22;8060;50.948;3.146;2022-09-28T09:08:58;15.30;99.90
15922;DHT22;8060;50.948;3.146;2022-09-28T09:11:43;15.60;99.90
15922;DHT22;8060;50.948;3.146;2022-09-28T09:14:35;15.70;99.90
15922;DHT22;8060;50.948;3.146;2022-09-28T09:17:14;16.00;99.90
15922;DHT22;8060;50.948;3.146;2022-09-28T09:19:52;16.10;99.90
15922;DHT22;8060;50.948;3.146;2022-09-28T09:22:33;16.10;99.90
15922;DHT22;8060;50.948;3.146;2022-09-28T09:25:16;15.80;99.90
15922;DHT22;8060;50.948;3.146;2022-09-28T09:28:08;15.60;99.90
15922;DHT22;8060;50.948;3.146;2022-09-28T09:30:45;15.30;99.90
15922;DHT22;8060;50.948;3.146;2022-09-28T09:33:33;15.40;99.90
15922;DHT22;8060;50.948;3.146;2022-09-28T09:36:15;15.70;99.90
15922;DHT22;8060;50.948;3.146;2022-09-28T09:38:55;16.10;99.90
15922;DHT22;8060;50.948;3.146;2022-09-28T09:41:38;16.40;99.90
15922;DHT22;8060;50.948;3.146;2022-09-28T09:44:35;16.70;99.90
15922;DHT22;8060;50.948;3.146;2022-09-28T09:47:06;17.10;99.90
15922;DHT22;8060;50.948;3.146;2022-09-28T09:49:38;17.40;99.90
15922;DHT22;8060;50.948;3.146;2022-09-28T09:52:13;17.50;99.90
15922;DHT22;8060;50.948;3.146;2022-09-28T09:54:49;17.70;99.90
15922;DHT22;8060;50.948;3.146;2022-09-28T09:57:20;17.90;99.90
15922;DHT22;8060;50.948;3.146;2022-09-28T09:59:51;18.00;99.90
15922;DHT22;8060;50.948;3.146;2022-09-28T10:02:22;18.30;99.90
15922;DHT22;8060;50.948;3.146;2022-09-28T10:04:53;18.50;99.90
15922;DHT22;8060;50.948;3.146;2022-09-28T10:07:24;18.70;99.90
15922;DHT22;8060;50.948;3.146;2022-09-28T10:10:00;18.80;99.90
15922;DHT22;8060;50.948;3.146;2022-09-28T10:12:29;18.90;99.90
15922;DHT22;8060;50.948;3.146;2022-09-28T10:14:58;19.00;99.90
15922;DHT22;8060;50.948;3.146;2022-09-28T10:17:28;18.90;99.90
15922;DHT22;8060;50.948;3.146;2022-09-28T10:19:59;18.60;99.90
15922;DHT22;8060;50.948;3.146;2022-09-28T10:22:30;18.50;99.90
15922;DHT22;8060;50.948;3.146;2022-09-28T10:25:00;18.20;99.90
15922;DHT22;8060;50.948;3.146;2022-09-28T10:27:30;17.90;99.90
15922;DHT22;8060;50.948;3.146;2022-09-28T10:30:02;17.70;99.90
15922;DHT22;8060;50.948;3.146;2022-09-28T10:32:37;17.60;99.90
15922;DHT22;8060;50.948;3.146;2022-09-28T10:35:19;17.50;99.90
15922;DHT22;8060;50.948;3.146;2022-09-28T10:37:50;17.90;99.90
15922;DHT22;8060;50.948;3.146;2022-09-28T10:40:32;18.70;99.90
15922;DHT22;8060;50.948;3.146;2022-09-28T10:43:02;19.30;99.90
15922;DHT22;8060;50.948;3.146;2022-09-28T10:45:34;18.90;99.90
15922;DHT22;8060;50.948;3.146;2022-09-28T10:48:11;18.20;99.90
15922;DHT22;8060;50.948;3.146;2022-09-28T10:50:41;17.60;99.90
15922;DHT22;8060;50.948;3.146;2022-09-28T10:53:11;17.30;99.90
15922;DHT22;8060;50.948;3.146;2022-09-28T10:55:55;16.80;99.90
15922;DHT22;8060;50.948;3.146;2022-09-28T10:58:27;16.40;99.90
15922;DHT22;8060;50.948;3.146;2022-09-28T11:01:02;16.30;99.90
15922;DHT22;8060;50.948;3.146;2022-09-28T11:03:32;16.20;99.90
15922;DHT22;8060;50.948;3.146;2022-09-28T11:06:02;16.20;99.90
15922;DHT22;8060;50.948;3.146;2022-09-28T11:08:35;16.10;99.90
15922;DHT22;8060;50.948;3.146;2022-09-28T11:11:08;16.20;99.90
15922;DHT22;8060;50.948;3.146;2022-09-28T11:13:42;16.30;99.90
15922;DHT22;8060;50.948;3.146;2022-09-28T11:16:23;16.50;99.90
15922;DHT22;8060;50.948;3.146;2022-09-28T11:18:52;16.70;99.90
15922;DHT22;8060;50.948;3.146;2022-09-28T11:21:25;16.70;99.90
15922;DHT22;8060;50.948;3.146;2022-09-28T11:23:55;16.70;99.90
15922;DHT22;8060;50.948;3.146;2022-09-28T11:26:26;16.80;99.90
15922;DHT22;8060;50.948;3.146;2022-09-28T11:29:01;17.50;99.90
15922;DHT22;8060;50.948;3.146;2022-09-28T11:31:30;18.10;99.90
15922;DHT22;8060;50.948;3.146;2022-09-28T11:34:03;18.00;99.90
15922;DHT22;8060;50.948;3.146;2022-09-28T11:36:46;17.60;99.90
15922;DHT22;8060;50.948;3.146;2022-09-28T11:39:25;17.40;99.90
15922;DHT22;8060;50.948;3.146;2022-09-28T11:42:04;16.90;99.90
15922;DHT22;8060;50.948;3.146;2022-09-28T11:44:43;16.50;99.90
15922;DHT22;8060;50.948;3.146;2022-09-28T11:47:29;16.40;99.90
15922;DHT22;8060;50.948;3.146;2022-09-28T11:50:03;16.50;99.90
15922;DHT22;8060;50.948;3.146;2022-09-28T11:52:38;16.50;99.90
15922;DHT22;8060;50.948;3.146;2022-09-28T11:55:13;16.70;99.90
15922;DHT22;8060;50.948;3.146;2022-09-28T11:57:47;16.80;99.90
15922;DHT22;8060;50.948;3.146;2022-09-28T12:00:19;16.90;99.90
15922;DHT22;8060;50.948;3.146;2022-09-28T12:02:52;17.20;99.90
15922;DHT22;8060;50.948;3.146;2022-09-28T12:05:25;17.60;99.90
15922;DHT22;8060;50.948;3.146;2022-09-28T12:07:58;17.90;99.90
15922;DHT22;8060;50.948;3.146;2022-09-28T12:10:34;17.80;99.90
15922;DHT22;8060;50.948;3.146;2022-09-28T12:13:09;17.40;99.90
15922;DHT22;8060;50.948;3.146;2022-09-28T12:15:44;17.10;99.90
15922;DHT22;8060;50.948;3.146;2022-09-28T12:18:40;17.00;99.90
15922;DHT22;8060;50.948;3.146;2022-09-28T12:21:25;17.00;99.90
15922;DHT22;8060;50.948;3.146;2022-09-28T12:23:57;16.90;99.90
15922;DHT22;8060;50.948;3.146;2022-09-28T12:26:32;16.80;99.90
15922;DHT22;8060;50.948;3.146;2022-09-28T12:29:10;17.40;99.90
15922;DHT22;8060;50.948;3.146;2022-09-28T12:31:52;17.50;99.90
15922;DHT22;8060;50.948;3.146;2022-09-28T12:34:23;18.00;99.90
15922;DHT22;8060;50.948;3.146;2022-09-28T12:37:04;18.50;99.90
15922;DHT22;8060;50.948;3.146;2022-09-28T12:39:46;18.60;99.90
15922;DHT22;8060;50.948;3.146;2022-09-28T12:42:34;19.20;99.90
15922;DHT22;8060;50.948;3.146;2022-09-28T12:45:26;19.60;99.90
15922;DHT22;8060;50.948;3.146;2022-09-28T12:48:35;20.60;99.90
15922;DHT22;8060;50.948;3.146;2022-09-28T12:51:17;21.60;99.90
15922;DHT22;8060;50.948;3.146;2022-09-28T12:54:04;21.80;99.90
15922;DHT22;8060;50.948;3.146;2022-09-28T12:56:40;21.70;99.90
15922;DHT22;8060;50.948;3.146;2022-09-28T12:59:18;21.30;99.90
15922;DHT22;8060;50.948;3.146;2022-09-28T13:04:56;21.90;99.90
15922;DHT22;8060;50.948;3.146;2022-09-28T13:07:32;22.20;99.90
15922;DHT22;8060;50.948;3.146;2022-09-28T13:10:12;22.60;99.90
15922;DHT22;8060;50.948;3.146;2022-09-28T13:12:54;22.50;99.90
15922;DHT22;8060;50.948;3.146;2022-09-28T13:15:38;22.30;99.90
15922;DHT22;8060;50.948;3.146;2022-09-28T13:18:16;21.80;99.90
15922;DHT22;8060;50.948;3.146;2022-09-28T13:21:02;20.80;99.90
15922;DHT22;8060;50.948;3.146;2022-09-28T13:23:34;20.80;99.90
15922;DHT22;8060;50.948;3.146;2022-09-28T13:26:14;21.60;99.90
15922;DHT22;8060;50.948;3.146;2022-09-28T13:28:45;22.30;99.90
15922;DHT22;8060;50.948;3.146;2022-09-28T13:31:18;23.00;99.90
15922;DHT22;8060;50.948;3.146;2022-09-28T13:33:49;23.70;99.90
15922;DHT22;8060;50.948;3.146;2022-09-28T13:36:39;24.00;99.90
15922;DHT22;8060;50.948;3.146;2022-09-28T13:39:33;23.60;99.90
15922;DHT22;8060;50.948;3.146;2022-09-28T13:42:02;24.10;99.90
15922;DHT22;8060;50.948;3.146;2022-09-28T13:50:27;24.80;99.90
15922;DHT22;8060;50.948;3.146;2022-09-28T13:53:02;24.30;99.90
15922;DHT22;8060;50.948;3.146;2022-09-28T13:55:37;24.60;99.90
15922;DHT22;8060;50.948;3.146;2022-09-28T13:58:14;24.50;99.90
15922;DHT22;8060;50.948;3.146;2022-09-28T14:00:47;24.60;99.90
15922;DHT22;8060;50.948;3.146;2022-09-28T14:03:26;23.40;99.90
15922;DHT22;8060;50.948;3.146;2022-09-28T14:06:09;22.40;99.90
15922;DHT22;8060;50.948;3.146;2022-09-28T14:09:07;21.10;99.90
15922;DHT22;8060;50.948;3.146;2022-09-28T14:11:52;20.00;99.90
15922;DHT22;8060;50.948;3.146;2022-09-28T14:14:46;19.10;99.90
15922;DHT22;8060;50.948;3.146;2022-09-28T14:20:24;18.40;99.90
15922;DHT22;8060;50.948;3.146;2022-09-28T14:23:26;18.10;99.90
15922;DHT22;8060;50.948;3.146;2022-09-28T14:26:13;18.10;99.90
15922;DHT22;8060;50.948;3.146;2022-09-28T14:28:50;18.30;99.90
15922;DHT22;8060;50.948;3.146;2022-09-28T14:31:26;19.10;99.90
15922;DHT22;8060;50.948;3.146;2022-09-28T14:33:56;20.20;99.90
15922;DHT22;8060;50.948;3.146;2022-09-28T14:36:31;21.40;99.90
15922;DHT22;8060;50.948;3.146;2022-09-28T14:39:26;22.20;99.90
15922;DHT22;8060;50.948;3.146;2022-09-28T14:42:13;22.00;99.90
15922;DHT22;8060;50.948;3.146;2022-09-28T14:48:12;22.60;99.90
15922;DHT22;8060;50.948;3.146;2022-09-28T14:50:41;22.70;99.90
15922;DHT22;8060;50.948;3.146;2022-09-28T14:53:11;23.00;99.90
15922;DHT22;8060;50.948;3.146;2022-09-28T14:55:45;22.90;99.90
15922;DHT22;8060;50.948;3.146;2022-09-28T14:58:27;22.90;99.90
15922;DHT22;8060;50.948;3.146;2022-09-28T15:01:00;22.40;99.90
15922;DHT22;8060;50.948;3.146;2022-09-28T15:03:31;22.50;99.90
15922;DHT22;8060;50.948;3.146;2022-09-28T15:06:00;22.40;99.90
15922;DHT22;8060;50.948;3.146;2022-09-28T15:08:35;22.00;99.90
15922;DHT22;8060;50.948;3.146;2022-09-28T15:11:11;22.00;99.90
15922;DHT22;8060;50.948;3.146;2022-09-28T15:13:41;22.00;99.90
15922;DHT22;8060;50.948;3.146;2022-09-28T15:16:11;21.10;99.90
15922;DHT22;8060;50.948;3.146;2022-09-28T15:19:08;20.90;99.90
15922;DHT22;8060;50.948;3.146;2022-09-28T15:21:42;21.00;99.90
15922;DHT22;8060;50.948;3.146;2022-09-28T15:24:30;20.80;99.90
15922;DHT22;8060;50.948;3.146;2022-09-28T15:27:02;20.30;99.90
15922;DHT22;8060;50.948;3.146;2022-09-28T15:29:31;20.40;99.90
15922;DHT22;8060;50.948;3.146;2022-09-28T15:32:00;20.60;99.90
15922;DHT22;8060;50.948;3.146;2022-09-28T15:34:30;20.50;99.90
15922;DHT22;8060;50.948;3.146;2022-09-28T15:37:18;20.20;99.90
15922;DHT22;8060;50.948;3.146;2022-09-28T15:39:48;19.90;99.90
15922;DHT22;8060;50.948;3.146;2022-09-28T15:42:19;20.00;99.90
15922;DHT22;8060;50.948;3.146;2022-09-28T15:48:17;19.30;99.90
15922;DHT22;8060;50.948;3.146;2022-09-28T15:50:59;19.10;99.90
15922;DHT22;8060;50.948;3.146;2022-09-28T15:53:40;19.10;99.90
15922;DHT22;8060;50.948;3.146;2022-09-28T15:56:09;18.80;99.90
15922;DHT22;8060;50.948;3.146;2022-09-28T15:58:39;18.50;99.90
15922;DHT22;8060;50.948;3.146;2022-09-28T16:01:27;18.30;99.90
15922;DHT22;8060;50.948;3.146;2022-09-28T16:04:34;17.90;99.90
15922;DHT22;8060;50.948;3.146;2022-09-28T16:07:24;17.70;99.90
15922;DHT22;8060;50.948;3.146;2022-09-28T16:09:59;17.50;99.90
15922;DHT22;8060;50.948;3.146;2022-09-28T16:12:40;17.20;99.90
15922;DHT22;8060;50.948;3.146;2022-09-28T16:15:25;17.10;99.90
15922;DHT22;8060;50.948;3.146;2022-09-28T16:17:57;17.00;99.90
15922;DHT22;8060;50.948;3.146;2022-09-28T16:20:28;16.80;99.90
15922;DHT22;8060;50.948;3.146;2022-09-28T16:22:59;16.50;99.90
15922;DHT22;8060;50.948;3.146;2022-09-28T16:25:33;16.40;99.90
15922;DHT22;8060;50.948;3.146;2022-09-28T16:28:04;16.50;99.90
15922;DHT22;8060;50.948;3.146;2022-09-28T16:30:34;16.40;99.90
15922;DHT22;8060;50.948;3.146;2022-09-28T16:33:04;16.40;99.90
15922;DHT22;8060;50.948;3.146;2022-09-28T16:35:49;16.40;99.90
15922;DHT22;8060;50.948;3.146;2022-09-28T16:44:54;16.30;99.90
15922;DHT22;8060;50.948;3.146;2022-09-28T16:47:23;16.20;99.90
15922;DHT22;8060;50.948;3.146;2022-09-28T16:49:51;16.20;99.90
15922;DHT22;8060;50.948;3.146;2022-09-28T16:52:20;16.10;99.90
15922;DHT22;8060;50.948;3.146;2022-09-28T16:55:02;16.10;99.90
15922;DHT22;8060;50.948;3.146;2022-09-28T16:58:03;16.10;99.90
15922;DHT22;8060;50.948;3.146;2022-09-28T17:08:34;16.20;99.90
15922;DHT22;8060;50.948;3.146;2022-09-28T17:11:03;16.30;99.90
15922;DHT22;8060;50.948;3.146;2022-09-28T17:13:50;16.20;99.90
15922;DHT22;8060;50.948;3.146;2022-09-28T17:16:30;16.30;99.90
